This is the latest recevied weather packets stored in our database for station/object G0TGD-10. If no packets are shown the sender has not sent any weather packets the latest 10 day(s).
| Time | Temp. | Humidity | Pressure | Rain* | Wind** | Luminosity | Snow |
|---|---|---|---|---|---|---|---|
| 1777992680 | 18.89° C | 57% | 1013.2 hPa | - | - | - | - |
| 1777991780 | 18.89° C | 57% | 1013.2 hPa | - | - | - | - |
| 1777990880 | 18.33° C | 58% | 1013.2 hPa | - | - | - | - |
| 1777989980 | 17.78° C | 59% | 1013.2 hPa | - | - | - | - |
| 1777989080 | 17.78° C | 59% | 1013.3 hPa | - | - | - | - |
| 1777988180 | 17.78° C | 59% | 1013.3 hPa | - | - | - | - |
| 1777987280 | 17.22° C | 60% | 1013.3 hPa | - | - | - | - |
| 1777986379 | 17.22° C | 60% | 1013.3 hPa | - | - | - | - |
| 1777985479 | 17.78° C | 60% | 1013.3 hPa | - | - | - | - |
| 1777984579 | 17.78° C | 60% | 1013.3 hPa | - | - | - | - |
| 1777983679 | 18.89° C | 59% | 1013.3 hPa | - | - | - | - |
| 1777982779 | 19.44° C | 59% | 1013.3 hPa | - | - | - | - |
| 1777981879 | 18.89° C | 61% | 1013.3 hPa | - | - | - | - |
| 1777980979 | 17.78° C | 61% | 1013.4 hPa | - | - | - | - |
| 1777980079 | 18.89° C | 61% | 1013.5 hPa | - | - | - | - |
| 1777979179 | 21.11° C | 60% | 1013.4 hPa | - | - | - | - |
| 1777978279 | 23.89° C | 57% | 1013.5 hPa | - | - | - | - |
| 1777977378 | 25.56° C | 58% | 1013.4 hPa | - | - | - | - |
| 1777976478 | 21.67° C | 61% | 1013.6 hPa | - | - | - | - |
| 1777975578 | 23.89° C | 59% | 1013.6 hPa | - | - | - | - |
| 1777974678 | 23.89° C | 59% | 1013.7 hPa | - | - | - | - |
| 1777973778 | 21.67° C | 60% | 1013.7 hPa | - | - | - | - |
| 1777972878 | 21.67° C | 61% | 1013.8 hPa | - | - | - | - |
| 1777971978 | 22.22° C | 62% | 1013.8 hPa | - | - | - | - |
| 1777971078 | 20° C | 67% | 1013.8 hPa | - | - | - | - |
* Rain since midnight (hover to see other rain measurements)
** Current wind speed in m/s (hover to see current wind gust speed)